Time;durP1;ratioP1;P1;durP2;ratioP2;P2;SDS_P1;SDS_P2;PMS_P1;PMS_P2;Temp;Humidity;BMP_temperature;BMP_pressure;BME280_temperature;BME280_humidity;BME280_pressure;Samples;Min_cycle;Max_cycle;Signal;HPM_P1;HPM_P2
2023/08/19 00:00:50;;;;;;;4.67;3.57;;;;;;;;;;4893244;28;20453;-73
2023/08/19 00:03:16;;;;;;;3.97;3.73;;;;;;;;;;4894029;28;20272;-73
2023/08/19 00:05:42;;;;;;;8.60;3.63;;;;;;;;;;4894691;28;20445;-74
2023/08/19 00:08:08;;;;;;;4.03;3.57;;;;;;;;;;4893578;29;20442;-74
2023/08/19 00:10:34;;;;;;;3.80;3.60;;;;;;;;;;4893104;29;20880;-70
2023/08/19 00:13:00;;;;;;;2.87;2.77;;;;;;;;;;4893318;28;20445;-71
2023/08/19 00:15:26;;;;;;;3.20;3.20;;;;;;;;;;4894729;28;20513;-72
2023/08/19 00:17:52;;;;;;;5.10;4.67;;;;;;;;;;4893702;28;20500;-71
2023/08/19 00:20:18;;;;;;;3.27;3.17;;;;;;;;;;4894148;28;20847;-73
2023/08/19 00:22:44;;;;;;;4.07;3.77;;;;;;;;;;4893967;28;20446;-72
2023/08/19 00:25:10;;;;;;;3.23;3.13;;;;;;;;;;4894110;28;20973;-71
2023/08/19 00:27:36;;;;;;;4.07;3.63;;;;;;;;;;4893783;28;21025;-73
2023/08/19 00:30:03;;;;;;;5.10;3.07;;;;;;;;;;4893738;28;20434;-70
2023/08/19 00:32:29;;;;;;;4.00;3.70;;;;;;;;;;4892106;28;20536;-71
2023/08/19 00:34:55;;;;;;;2.90;2.77;;;;;;;;;;4894322;28;20492;-70
2023/08/19 00:37:21;;;;;;;2.90;2.83;;;;;;;;;;4893841;28;20484;-69
2023/08/19 00:39:47;;;;;;;3.37;3.03;;;;;;;;;;4894064;28;20802;-72
2023/08/19 00:42:14;;;;;;;6.50;3.13;;;;;;;;;;4896146;28;20441;-71
2023/08/19 00:44:40;;;;;;;4.30;3.90;;;;;;;;;;4896925;28;20953;-74
2023/08/19 00:47:06;;;;;;;10.83;4.23;;;;;;;;;;4897548;28;20462;-72
2023/08/19 00:49:32;;;;;;;7.73;4.60;;;;;;;;;;4897546;28;20437;-72
2023/08/19 00:52:00;;;;;;;4.53;4.30;;;;;;;;;;4896235;29;20438;-70
2023/08/19 00:54:27;;;;;;;8.43;4.13;;;;;;;;;;4897252;28;20445;-70
2023/08/19 00:56:53;;;;;;;4.60;3.40;;;;;;;;;;4896237;29;20477;-70
2023/08/19 00:59:19;;;;;;;3.67;3.57;;;;;;;;;;4896298;28;20493;-70
2023/08/19 01:01:45;;;;;;;3.33;3.07;;;;;;;;;;4895167;28;20983;-72
2023/08/19 01:04:11;;;;;;;7.37;3.73;;;;;;;;;;4896715;28;20457;-72
2023/08/19 01:06:44;;;;;;;3.53;3.40;;;;;;;;;;4896412;29;20194;-70
2023/08/19 01:09:23;;;;;;;5.30;4.17;;;;;;;;;;4896008;28;20473;-71
2023/08/19 01:11:55;;;;;;;4.37;3.97;;;;;;;;;;4885036;28;20468;-70
2023/08/19 01:14:37;;;;;;;3.40;3.20;;;;;;;;;;4892035;28;20480;-72
2023/08/19 01:17:04;;;;;;;6.43;3.50;;;;;;;;;;4895936;28;20433;-70
2023/08/19 01:19:31;;;;;;;3.30;3.10;;;;;;;;;;4894817;28;20906;-70
2023/08/19 01:22:04;;;;;;;5.20;3.70;;;;;;;;;;4896687;29;20426;-73
2023/08/19 01:24:36;;;;;;;4.17;3.90;;;;;;;;;;4896808;29;20448;-73
2023/08/19 01:27:03;;;;;;;4.27;3.73;;;;;;;;;;4896571;28;20437;-71
2023/08/19 01:29:29;;;;;;;4.03;3.70;;;;;;;;;;4896223;28;20453;-71
2023/08/19 01:31:55;;;;;;;3.70;3.30;;;;;;;;;;4895942;28;20541;-73
2023/08/19 01:34:22;;;;;;;6.23;3.30;;;;;;;;;;4894848;28;20445;-72
2023/08/19 01:36:50;;;;;;;2.60;2.50;;;;;;;;;;4896294;29;20794;-70
2023/08/19 01:39:18;;;;;;;4.67;4.20;;;;;;;;;;4895191;29;20504;-71
2023/08/19 01:41:44;;;;;;;4.27;3.90;;;;;;;;;;4895636;28;20934;-70
2023/08/19 01:44:10;;;;;;;3.87;3.77;;;;;;;;;;4896557;29;20524;-70
2023/08/19 01:46:36;;;;;;;3.67;3.47;;;;;;;;;;4896267;28;20429;-70
2023/08/19 01:49:02;;;;;;;4.27;3.97;;;;;;;;;;4896119;28;20442;-70
2023/08/19 01:51:30;;;;;;;4.10;3.90;;;;;;;;;;4894802;28;20485;-71
2023/08/19 01:53:56;;;;;;;6.27;4.17;;;;;;;;;;4895778;28;20445;-70
2023/08/19 01:56:22;;;;;;;5.13;4.60;;;;;;;;;;4896098;28;20910;-70
2023/08/19 01:58:48;;;;;;;4.00;3.70;;;;;;;;;;4896009;28;20490;-71
2023/08/19 02:01:14;;;;;;;4.47;3.70;;;;;;;;;;4894444;29;20448;-69
2023/08/19 02:03:40;;;;;;;4.20;3.90;;;;;;;;;;4899262;28;20459;-70
2023/08/19 02:06:06;;;;;;;3.60;3.50;;;;;;;;;;4914142;29;20421;-72
2023/08/19 02:08:32;;;;;;;5.93;3.70;;;;;;;;;;4901674;28;20437;-69
2023/08/19 02:10:58;;;;;;;6.00;3.43;;;;;;;;;;4894828;28;20496;-72
2023/08/19 02:13:24;;;;;;;3.27;2.97;;;;;;;;;;4895709;28;20437;-69
2023/08/19 02:15:50;;;;;;;5.63;3.10;;;;;;;;;;4894560;28;20532;-71
2023/08/19 02:18:16;;;;;;;3.07;2.97;;;;;;;;;;4895935;28;20489;-72
2023/08/19 02:20:46;;;;;;;4.00;3.27;;;;;;;;;;4895470;28;20815;-70
2023/08/19 02:23:12;;;;;;;4.20;3.87;;;;;;;;;;4896098;28;20436;-69
2023/08/19 02:25:39;;;;;;;4.33;3.17;;;;;;;;;;4894855;29;20564;-74
2023/08/19 02:28:05;;;;;;;4.17;3.93;;;;;;;;;;4894859;28;20513;-73
2023/08/19 02:30:34;;;;;;;3.90;3.60;;;;;;;;;;4894787;28;20942;-73
2023/08/19 02:33:06;;;;;;;4.23;3.93;;;;;;;;;;4895116;29;20466;-70
2023/08/19 02:35:32;;;;;;;3.40;3.20;;;;;;;;;;4896143;28;20433;-71
2023/08/19 02:37:59;;;;;;;3.90;3.70;;;;;;;;;;4894916;28;20493;-70
2023/08/19 02:40:25;;;;;;;5.33;4.37;;;;;;;;;;4894789;28;20300;-70
2023/08/19 02:42:51;;;;;;;3.60;3.30;;;;;;;;;;4895239;28;20886;-72
2023/08/19 02:45:16;;;;;;;6.20;3.40;;;;;;;;;;4878232;28;20437;-73
2023/08/19 02:47:42;;;;;;;4.43;4.03;;;;;;;;;;4895332;28;20443;-70
2023/08/19 02:50:09;;;;;;;4.73;3.53;;;;;;;;;;4894810;29;20442;-71
2023/08/19 02:52:34;;;;;;;5.83;4.67;;;;;;;;;;4894387;28;20453;-73
2023/08/19 02:55:00;;;;;;;4.17;3.97;;;;;;;;;;4893927;28;20802;-72
2023/08/19 02:57:26;;;;;;;3.50;3.30;;;;;;;;;;4895240;28;20536;-70
2023/08/19 02:59:55;;;;;;;4.00;3.90;;;;;;;;;;4895451;29;20484;-70
2023/08/19 03:02:21;;;;;;;3.60;3.30;;;;;;;;;;4893308;28;20453;-72
2023/08/19 03:04:47;;;;;;;3.10;3.10;;;;;;;;;;4894997;28;20783;-73
2023/08/19 03:07:12;;;;;;;3.80;3.53;;;;;;;;;;4895255;28;20430;-71
2023/08/19 03:09:38;;;;;;;3.63;3.27;;;;;;;;;;4895359;29;20446;-73
2023/08/19 03:12:05;;;;;;;3.77;3.53;;;;;;;;;;4893626;28;20441;-72
2023/08/19 03:14:31;;;;;;;2.90;2.80;;;;;;;;;;4894274;29;20461;-72
2023/08/19 03:16:57;;;;;;;3.60;3.40;;;;;;;;;;4895390;28;20437;-74
2023/08/19 03:19:23;;;;;;;4.33;3.50;;;;;;;;;;4892990;29;20504;-73
2023/08/19 03:21:48;;;;;;;3.77;3.33;;;;;;;;;;4893661;28;20453;-74
2023/08/19 03:24:15;;;;;;;6.13;3.30;;;;;;;;;;4894934;28;20441;-73
2023/08/19 03:26:41;;;;;;;6.43;3.67;;;;;;;;;;4893439;29;20441;-71
2023/08/19 03:29:07;;;;;;;4.57;2.80;;;;;;;;;;4895155;28;20529;-73
2023/08/19 03:31:33;;;;;;;3.17;2.97;;;;;;;;;;4893680;29;20938;-74
2023/08/19 03:33:59;;;;;;;3.93;3.70;;;;;;;;;;4895151;28;20800;-73
2023/08/19 03:36:24;;;;;;;3.60;3.00;;;;;;;;;;4894552;29;20445;-73
2023/08/19 03:38:50;;;;;;;3.93;3.17;;;;;;;;;;4894746;29;20513;-72
2023/08/19 03:41:16;;;;;;;3.73;2.53;;;;;;;;;;4893915;28;20457;-70
2023/08/19 03:43:42;;;;;;;6.83;2.80;;;;;;;;;;4894907;28;20196;-73
2023/08/19 03:46:09;;;;;;;4.50;4.07;;;;;;;;;;4893093;28;20430;-70
2023/08/19 03:48:35;;;;;;;5.13;4.43;;;;;;;;;;4894071;28;20453;-70
2023/08/19 03:51:02;;;;;;;13.77;6.30;;;;;;;;;;4893847;29;20454;-70
2023/08/19 03:53:28;;;;;;;6.77;6.20;;;;;;;;;;4893922;28;20453;-71
2023/08/19 03:55:54;;;;;;;6.43;5.90;;;;;;;;;;4894278;28;20793;-70
2023/08/19 03:58:20;;;;;;;5.27;4.87;;;;;;;;;;4893885;28;20492;-71
2023/08/19 04:00:47;;;;;;;8.70;4.50;;;;;;;;;;4891338;28;20437;-70
2023/08/19 04:03:13;;;;;;;8.60;5.10;;;;;;;;;;4894815;28;20441;-72
2023/08/19 04:05:39;;;;;;;11.83;3.97;;;;;;;;;;4894739;28;20794;-73
2023/08/19 04:08:05;;;;;;;4.17;3.73;;;;;;;;;;4894403;28;20627;-71
2023/08/19 04:10:31;;;;;;;7.03;3.60;;;;;;;;;;4891690;28;20460;-73
2023/08/19 04:12:57;;;;;;;8.33;4.17;;;;;;;;;;4894581;28;20433;-72
2023/08/19 04:15:23;;;;;;;3.87;3.77;;;;;;;;;;4895966;28;20464;-73
2023/08/19 04:17:49;;;;;;;6.10;3.40;;;;;;;;;;4896785;28;20497;-71
2023/08/19 04:20:15;;;;;;;6.23;3.60;;;;;;;;;;4895820;28;20457;-72
2023/08/19 04:22:41;;;;;;;5.13;3.83;;;;;;;;;;4897416;29;20438;-71
2023/08/19 04:25:07;;;;;;;8.70;3.70;;;;;;;;;;4895861;28;20457;-71
2023/08/19 04:27:33;;;;;;;3.43;3.27;;;;;;;;;;4896650;29;20197;-72
2023/08/19 04:29:59;;;;;;;3.53;3.40;;;;;;;;;;4897738;28;20795;-70
2023/08/19 04:32:25;;;;;;;4.23;3.73;;;;;;;;;;4896423;29;20449;-71
2023/08/19 04:34:51;;;;;;;5.63;3.83;;;;;;;;;;4897107;28;20189;-72
2023/08/19 04:37:17;;;;;;;4.10;3.37;;;;;;;;;;4896969;28;20441;-74
2023/08/19 04:39:43;;;;;;;4.10;3.70;;;;;;;;;;4896812;28;21102;-72
2023/08/19 04:42:09;;;;;;;6.57;4.00;;;;;;;;;;4895174;28;20799;-73
2023/08/19 04:44:34;;;;;;;4.40;4.20;;;;;;;;;;4895604;28;20438;-72
2023/08/19 04:47:00;;;;;;;3.60;3.40;;;;;;;;;;4897220;28;20453;-73
2023/08/19 04:49:26;;;;;;;10.40;4.00;;;;;;;;;;4897080;29;20544;-71
2023/08/19 04:51:52;;;;;;;4.73;3.63;;;;;;;;;;4896596;28;20457;-74
2023/08/19 04:54:18;;;;;;;5.73;3.60;;;;;;;;;;4897202;28;20481;-80
2023/08/19 04:56:44;;;;;;;3.83;3.63;;;;;;;;;;4894351;29;20445;-84
2023/08/19 04:59:10;;;;;;;3.87;3.57;;;;;;;;;;4897211;28;20920;-77
2023/08/19 05:01:36;;;;;;;3.70;3.50;;;;;;;;;;4894694;28;20452;-76
2023/08/19 05:04:02;;;;;;;2.63;2.50;;;;;;;;;;4895471;28;20485;-72
2023/08/19 05:06:28;;;;;;;3.70;3.00;;;;;;;;;;4897441;28;20434;-81
2023/08/19 05:08:54;;;;;;;3.17;3.07;;;;;;;;;;4897214;28;20500;-77
2023/08/19 05:11:20;;;;;;;16.23;3.17;;;;;;;;;;4895956;28;20441;-77
2023/08/19 05:13:46;;;;;;;4.40;4.30;;;;;;;;;;4896369;28;20496;-77
2023/08/19 05:16:12;;;;;;;4.07;3.77;;;;;;;;;;4896938;29;20478;-80
2023/08/19 05:18:38;;;;;;;4.00;3.77;;;;;;;;;;4896930;28;20902;-81
2023/08/19 05:21:04;;;;;;;4.00;3.90;;;;;;;;;;4896768;29;20461;-80
2023/08/19 05:23:30;;;;;;;3.73;3.43;;;;;;;;;;4896625;29;20540;-78
2023/08/19 05:25:56;;;;;;;3.77;3.43;;;;;;;;;;4896433;29;20786;-72
2023/08/19 05:28:22;;;;;;;3.20;3.10;;;;;;;;;;4896834;28;20429;-70
2023/08/19 05:30:48;;;;;;;2.97;2.87;;;;;;;;;;4895880;29;20438;-78
2023/08/19 05:33:14;;;;;;;3.40;3.10;;;;;;;;;;4895630;28;20536;-71
2023/08/19 05:35:40;;;;;;;3.33;3.03;;;;;;;;;;4896453;28;20927;-74
2023/08/19 05:38:06;;;;;;;4.97;3.87;;;;;;;;;;4896751;29;20481;-74
2023/08/19 05:40:32;;;;;;;3.77;3.57;;;;;;;;;;4895627;29;20433;-68
2023/08/19 05:42:57;;;;;;;5.50;3.40;;;;;;;;;;4896157;28;20869;-68
2023/08/19 05:45:23;;;;;;;5.10;4.70;;;;;;;;;;4896248;28;20422;-69
2023/08/19 05:47:49;;;;;;;7.80;4.30;;;;;;;;;;4884841;28;20553;-71
2023/08/19 05:50:16;;;;;;;4.27;4.03;;;;;;;;;;4896486;28;20473;-68
2023/08/19 05:52:42;;;;;;;4.60;4.03;;;;;;;;;;4895809;28;20456;-79
2023/08/19 05:55:08;;;;;;;4.07;3.73;;;;;;;;;;4894498;28;20421;-81
2023/08/19 05:57:34;;;;;;;10.13;4.00;;;;;;;;;;4895419;28;20484;-82
2023/08/19 06:00:00;;;;;;;4.77;3.60;;;;;;;;;;4895889;28;20438;-73
2023/08/19 06:02:26;;;;;;;6.80;3.63;;;;;;;;;;4895913;28;20492;-74
2023/08/19 06:04:52;;;;;;;4.57;3.67;;;;;;;;;;4895774;29;20445;-75
2023/08/19 06:07:25;;;;;;;9.93;4.57;;;;;;;;;;4895159;29;21009;-72
2023/08/19 06:09:51;;;;;;;7.70;3.63;;;;;;;;;;4894445;28;20193;-80
2023/08/19 06:12:17;;;;;;;4.93;4.63;;;;;;;;;;4896232;29;20437;-78
2023/08/19 06:14:43;;;;;;;4.20;4.00;;;;;;;;;;4896527;29;20785;-84
2023/08/19 06:17:09;;;;;;;5.43;3.90;;;;;;;;;;4895971;29;20457;-88
2023/08/19 06:19:35;;;;;;;4.53;4.10;;;;;;;;;;4895258;28;21020;-72
2023/08/19 06:22:01;;;;;;;3.90;3.60;;;;;;;;;;4894476;28;20793;-85
2023/08/19 06:24:27;;;;;;;4.03;3.83;;;;;;;;;;4895610;28;20678;-87
2023/08/19 06:26:53;;;;;;;8.10;3.70;;;;;;;;;;4895766;28;20425;-85
2023/08/19 06:29:19;;;;;;;11.20;4.30;;;;;;;;;;4896433;28;20946;-84
2023/08/19 06:31:45;;;;;;;6.00;3.87;;;;;;;;;;4895645;28;20465;-76
2023/08/19 06:34:12;;;;;;;4.60;4.30;;;;;;;;;;4896007;28;20197;-76
2023/08/19 06:36:41;;;;;;;4.27;3.87;;;;;;;;;;4888959;28;20519;-68
2023/08/19 06:39:07;;;;;;;6.37;3.60;;;;;;;;;;4893809;29;20496;-71
2023/08/19 06:41:35;;;;;;;8.20;3.27;;;;;;;;;;4894052;28;20441;-67
2023/08/19 06:44:02;;;;;;;3.53;3.33;;;;;;;;;;4890284;29;20448;-70
2023/08/19 06:46:29;;;;;;;21.40;4.00;;;;;;;;;;4893368;28;20437;-71
2023/08/19 06:48:55;;;;;;;3.53;3.23;;;;;;;;;;4892343;29;20445;-72
2023/08/19 06:51:21;;;;;;;7.27;4.60;;;;;;;;;;4892411;28;20930;-71
2023/08/19 06:53:47;;;;;;;8.07;3.93;;;;;;;;;;4895843;29;20422;-70
2023/08/19 06:56:24;;;;;;;3.40;3.30;;;;;;;;;;4895545;29;20956;-69
2023/08/19 06:58:58;;;;;;;4.23;3.97;;;;;;;;;;4894729;28;20535;-71
2023/08/19 07:01:25;;;;;;;12.83;3.53;;;;;;;;;;4894880;29;20434;-70
2023/08/19 07:03:54;;;;;;;7.60;4.00;;;;;;;;;;4895508;29;20468;-74
2023/08/19 07:06:21;;;;;;;7.90;3.97;;;;;;;;;;4894806;28;20449;-69
2023/08/19 07:08:47;;;;;;;3.40;3.20;;;;;;;;;;4893812;28;20543;-73
2023/08/19 07:11:15;;;;;;;5.23;3.40;;;;;;;;;;4894517;29;20437;-73
2023/08/19 07:13:41;;;;;;;4.10;3.30;;;;;;;;;;4893845;28;20449;-73
2023/08/19 07:16:10;;;;;;;7.00;4.13;;;;;;;;;;4894297;28;20456;-71
2023/08/19 07:18:38;;;;;;;4.53;3.60;;;;;;;;;;4894576;29;20497;-70
2023/08/19 07:21:05;;;;;;;9.83;4.10;;;;;;;;;;4894505;28;20448;-69
2023/08/19 07:23:31;;;;;;;5.00;3.63;;;;;;;;;;4895596;28;20426;-73
2023/08/19 07:25:58;;;;;;;4.77;4.37;;;;;;;;;;4894703;29;20438;-71
2023/08/19 07:28:24;;;;;;;7.30;3.53;;;;;;;;;;4894937;29;20453;-71
2023/08/19 07:30:51;;;;;;;4.23;3.80;;;;;;;;;;4894116;28;20442;-71
2023/08/19 07:33:17;;;;;;;10.63;3.53;;;;;;;;;;4893491;29;20484;-71
2023/08/19 07:35:44;;;;;;;3.70;3.50;;;;;;;;;;4894166;28;20484;-71
2023/08/19 07:38:10;;;;;;;5.17;3.60;;;;;;;;;;4895150;29;20481;-71
2023/08/19 07:40:36;;;;;;;6.23;3.67;;;;;;;;;;4893593;28;20461;-72
2023/08/19 07:43:02;;;;;;;4.03;3.83;;;;;;;;;;4894709;28;20477;-70
2023/08/19 07:45:28;;;;;;;14.47;3.93;;;;;;;;;;4892554;28;20454;-70
2023/08/19 07:47:54;;;;;;;5.40;4.30;;;;;;;;;;4893150;29;20448;-70
2023/08/19 07:50:20;;;;;;;5.43;4.10;;;;;;;;;;4891269;28;20221;-70
2023/08/19 07:52:46;;;;;;;3.93;3.57;;;;;;;;;;4895892;28;20430;-70
2023/08/19 07:55:12;;;;;;;4.80;3.70;;;;;;;;;;4893588;29;20445;-71
2023/08/19 07:57:38;;;;;;;3.57;3.40;;;;;;;;;;4900334;29;20531;-71
2023/08/19 08:00:04;;;;;;;7.20;3.53;;;;;;;;;;4902241;28;20430;-71
2023/08/19 08:02:30;;;;;;;4.97;4.10;;;;;;;;;;4893987;28;20445;-71
2023/08/19 08:04:56;;;;;;;3.50;3.40;;;;;;;;;;4893496;28;20450;-70
2023/08/19 08:07:24;;;;;;;8.10;3.40;;;;;;;;;;4892707;29;20442;-71
2023/08/19 08:09:50;;;;;;;3.87;3.70;;;;;;;;;;4891214;28;20449;-71
2023/08/19 08:12:16;;;;;;;4.40;3.60;;;;;;;;;;4896251;29;20441;-74
2023/08/19 08:14:42;;;;;;;7.20;3.40;;;;;;;;;;4891376;28;20500;-72
2023/08/19 08:17:08;;;;;;;8.97;3.97;;;;;;;;;;4903177;28;20794;-73
2023/08/19 08:19:34;;;;;;;7.83;3.90;;;;;;;;;;4892775;29;20596;-73
2023/08/19 08:22:00;;;;;;;4.13;3.73;;;;;;;;;;4890420;29;20441;-72
2023/08/19 08:24:26;;;;;;;3.20;3.10;;;;;;;;;;4892399;28;20455;-72
2023/08/19 08:26:52;;;;;;;4.70;3.90;;;;;;;;;;4892337;29;20441;-70
2023/08/19 08:29:18;;;;;;;12.73;3.80;;;;;;;;;;4893961;28;20956;-73
2023/08/19 08:31:44;;;;;;;8.70;4.30;;;;;;;;;;4890778;28;20596;-74
2023/08/19 08:34:10;;;;;;;3.97;3.73;;;;;;;;;;4891054;28;20491;-72
2023/08/19 08:36:36;;;;;;;5.93;3.60;;;;;;;;;;4893194;28;20433;-71
2023/08/19 08:39:02;;;;;;;3.83;3.53;;;;;;;;;;4891154;28;20543;-73
2023/08/19 08:41:28;;;;;;;3.90;3.70;;;;;;;;;;4892364;28;20464;-73
2023/08/19 08:43:55;;;;;;;7.00;4.67;;;;;;;;;;4892532;28;20492;-72
2023/08/19 08:46:22;;;;;;;10.00;4.30;;;;;;;;;;4893859;28;20438;-70
2023/08/19 08:48:48;;;;;;;4.70;3.40;;;;;;;;;;4894081;28;20964;-71
2023/08/19 08:51:15;;;;;;;11.17;3.67;;;;;;;;;;4894008;29;20476;-72
2023/08/19 08:53:41;;;;;;;7.13;3.70;;;;;;;;;;4893643;28;21020;-70
2023/08/19 08:56:08;;;;;;;10.63;4.10;;;;;;;;;;4894034;28;20422;-70
2023/08/19 08:58:34;;;;;;;3.20;3.10;;;;;;;;;;4893290;29;20567;-72
2023/08/19 09:01:02;;;;;;;3.40;3.20;;;;;;;;;;4895315;28;20916;-72
2023/08/19 09:03:30;;;;;;;3.43;3.20;;;;;;;;;;4896620;29;20452;-70
2023/08/19 09:05:58;;;;;;;5.80;5.20;;;;;;;;;;4895246;28;20464;-73
2023/08/19 09:08:31;;;;;;;4.30;3.50;;;;;;;;;;4896515;29;20445;-72
2023/08/19 09:11:00;;;;;;;4.93;3.73;;;;;;;;;;4895843;29;20449;-70
2023/08/19 09:13:27;;;;;;;7.60;4.10;;;;;;;;;;4895316;28;20445;-69
2023/08/19 09:15:54;;;;;;;4.50;3.30;;;;;;;;;;4892980;28;20823;-73
2023/08/19 09:18:20;;;;;;;3.67;3.50;;;;;;;;;;4888476;28;20492;-69
2023/08/19 09:20:46;;;;;;;14.30;4.43;;;;;;;;;;4891216;28;20484;-71
2023/08/19 09:23:12;;;;;;;6.67;3.37;;;;;;;;;;4896590;28;20445;-70
2023/08/19 09:25:40;;;;;;;3.13;2.90;;;;;;;;;;4892682;28;20775;-69
2023/08/19 09:28:06;;;;;;;5.37;3.33;;;;;;;;;;4893985;29;20193;-70
2023/08/19 09:30:35;;;;;;;10.47;4.43;;;;;;;;;;4892425;28;20445;-69
2023/08/19 09:33:01;;;;;;;3.13;2.90;;;;;;;;;;4889368;28;20454;-71
2023/08/19 09:35:35;;;;;;;5.33;2.83;;;;;;;;;;4891675;28;20449;-69
2023/08/19 09:38:01;;;;;;;10.67;2.80;;;;;;;;;;4891726;28;20864;-70
2023/08/19 09:40:27;;;;;;;4.40;2.93;;;;;;;;;;4891423;28;20969;-70
2023/08/19 09:42:56;;;;;;;3.87;3.07;;;;;;;;;;4889427;28;20444;-73
2023/08/19 09:45:25;;;;;;;3.83;3.63;;;;;;;;;;4892541;28;20193;-80
2023/08/19 09:47:52;;;;;;;14.60;3.77;;;;;;;;;;4892909;28;20442;-72
2023/08/19 09:50:19;;;;;;;5.40;2.30;;;;;;;;;;4891269;28;20457;-79
2023/08/19 09:53:01;;;;;;;5.50;2.90;;;;;;;;;;4892176;28;20486;-74
2023/08/19 09:55:28;;;;;;;3.33;2.30;;;;;;;;;;4892587;28;20460;-73
2023/08/19 09:57:54;;;;;;;7.30;2.60;;;;;;;;;;4893274;28;20493;-77
2023/08/19 10:00:20;;;;;;;10.13;2.83;;;;;;;;;;4893403;28;20445;-77
2023/08/19 10:02:46;;;;;;;2.50;2.30;;;;;;;;;;4894735;29;20441;-75
2023/08/19 10:05:12;;;;;;;7.10;3.83;;;;;;;;;;4900117;28;20442;-77
2023/08/19 10:07:39;;;;;;;2.70;2.70;;;;;;;;;;4892470;28;20529;-72
2023/08/19 10:10:07;;;;;;;6.03;2.50;;;;;;;;;;4891850;28;20528;-73
2023/08/19 10:12:34;;;;;;;5.53;2.43;;;;;;;;;;4893281;28;20445;-73
2023/08/19 10:15:00;;;;;;;2.50;2.33;;;;;;;;;;4894165;28;20445;-74
2023/08/19 10:17:26;;;;;;;2.50;2.40;;;;;;;;;;4893390;28;20995;-75
2023/08/19 10:19:59;;;;;;;3.23;1.93;;;;;;;;;;4893295;28;20531;-73
2023/08/19 10:22:26;;;;;;;3.93;2.53;;;;;;;;;;4891841;28;20465;-69
2023/08/19 10:24:52;;;;;;;8.33;2.43;;;;;;;;;;4893411;28;20452;-72
2023/08/19 10:27:18;;;;;;;2.37;2.27;;;;;;;;;;4893535;28;20426;-71
2023/08/19 10:29:46;;;;;;;4.77;2.63;;;;;;;;;;4893135;28;20851;-71
2023/08/19 10:32:31;;;;;;;7.13;3.57;;;;;;;;;;4890464;28;20442;-73
2023/08/19 10:35:08;;;;;;;3.03;2.83;;;;;;;;;;4890942;28;20449;-70
2023/08/19 10:37:35;;;;;;;5.40;2.80;;;;;;;;;;4890109;29;20463;-70
2023/08/19 10:40:11;;;;;;;2.77;2.50;;;;;;;;;;4889649;28;20965;-70
2023/08/19 10:42:37;;;;;;;13.63;3.03;;;;;;;;;;4889028;29;20453;-71
2023/08/19 10:45:05;;;;;;;3.60;2.70;;;;;;;;;;4890141;28;20822;-70
2023/08/19 10:47:31;;;;;;;7.77;2.47;;;;;;;;;;4891564;28;20998;-70
2023/08/19 10:50:04;;;;;;;2.83;2.70;;;;;;;;;;4891614;28;20457;-70
2023/08/19 10:52:31;;;;;;;4.97;3.20;;;;;;;;;;4894155;28;20437;-72
2023/08/19 10:55:00;;;;;;;5.50;2.67;;;;;;;;;;4892536;28;20429;-73
2023/08/19 10:57:27;;;;;;;2.87;2.77;;;;;;;;;;4892867;28;20441;-74
2023/08/19 10:59:56;;;;;;;2.87;2.60;;;;;;;;;;4889772;28;20465;-71
2023/08/19 11:02:23;;;;;;;5.23;3.23;;;;;;;;;;4890169;29;20465;-70
2023/08/19 11:04:50;;;;;;;3.13;2.93;;;;;;;;;;4889981;28;20465;-71
2023/08/19 11:07:16;;;;;;;5.70;3.50;;;;;;;;;;4889157;28;20438;-73
2023/08/19 11:09:43;;;;;;;5.63;2.80;;;;;;;;;;4889149;28;20854;-71
2023/08/19 11:12:11;;;;;;;2.70;2.50;;;;;;;;;;4890321;28;21021;-74
2023/08/19 11:14:37;;;;;;;3.83;2.23;;;;;;;;;;4891087;28;20796;-71
2023/08/19 11:17:03;;;;;;;3.37;2.30;;;;;;;;;;4889592;28;20448;-71
2023/08/19 11:19:31;;;;;;;7.23;3.20;;;;;;;;;;4894501;28;20508;-73
2023/08/19 11:21:57;;;;;;;8.17;2.60;;;;;;;;;;4891101;28;20876;-72
2023/08/19 11:24:36;;;;;;;4.70;4.40;;;;;;;;;;4889762;28;20941;-74
2023/08/19 11:27:02;;;;;;;2.77;2.50;;;;;;;;;;4891035;28;20969;-69
2023/08/19 11:29:29;;;;;;;2.47;2.27;;;;;;;;;;4891076;29;20517;-73
2023/08/19 11:31:55;;;;;;;3.60;3.40;;;;;;;;;;4890226;28;20953;-74
2023/08/19 11:34:21;;;;;;;5.93;2.67;;;;;;;;;;4890996;29;20461;-70
2023/08/19 11:36:47;;;;;;;7.40;2.80;;;;;;;;;;4889905;28;20452;-72
2023/08/19 11:39:14;;;;;;;4.67;2.60;;;;;;;;;;4891826;28;20495;-71
2023/08/19 11:41:40;;;;;;;6.70;2.60;;;;;;;;;;4891990;28;20517;-70
2023/08/19 11:44:06;;;;;;;8.43;2.40;;;;;;;;;;4891544;28;20433;-71
2023/08/19 11:46:33;;;;;;;9.03;3.07;;;;;;;;;;4891676;28;20937;-72
2023/08/19 11:49:01;;;;;;;9.40;3.27;;;;;;;;;;4892191;28;20536;-72
2023/08/19 11:51:27;;;;;;;6.90;2.50;;;;;;;;;;4890323;29;20448;-73
2023/08/19 11:53:54;;;;;;;3.20;2.23;;;;;;;;;;4889465;28;20552;-72
2023/08/19 11:56:21;;;;;;;6.67;3.43;;;;;;;;;;4892003;28;20493;-72
2023/08/19 11:58:51;;;;;;;4.27;3.50;;;;;;;;;;4891861;28;20489;-73
2023/08/19 12:01:20;;;;;;;4.70;2.20;;;;;;;;;;4890793;29;20812;-71
2023/08/19 12:03:47;;;;;;;8.63;2.90;;;;;;;;;;4891093;28;20454;-70
2023/08/19 12:06:14;;;;;;;4.47;3.40;;;;;;;;;;4889663;28;20499;-71
2023/08/19 12:08:41;;;;;;;5.60;2.57;;;;;;;;;;4886233;28;20446;-70
2023/08/19 12:11:07;;;;;;;3.10;2.90;;;;;;;;;;4892185;28;20441;-71
2023/08/19 12:13:33;;;;;;;2.93;2.50;;;;;;;;;;4892164;29;20449;-71
2023/08/19 12:15:59;;;;;;;6.47;2.53;;;;;;;;;;4892911;28;20952;-68
2023/08/19 12:18:25;;;;;;;3.80;3.30;;;;;;;;;;4891591;28;20542;-73
2023/08/19 12:20:53;;;;;;;5.73;2.60;;;;;;;;;;4890262;28;20477;-69
2023/08/19 12:23:19;;;;;;;5.13;2.85;;;;;;;;;;4891148;28;20817;-72
2023/08/19 12:25:49;;;;;;;4.03;2.80;;;;;;;;;;4893481;28;20224;-71
2023/08/19 12:28:15;;;;;;;3.07;2.87;;;;;;;;;;4889878;28;20986;-68
2023/08/19 12:30:42;;;;;;;5.60;2.73;;;;;;;;;;4891896;28;20932;-73
2023/08/19 12:33:07;;;;;;;19.27;3.83;;;;;;;;;;4890567;28;20429;-71
2023/08/19 12:35:35;;;;;;;3.40;3.20;;;;;;;;;;4892261;28;20948;-70
2023/08/19 12:38:01;;;;;;;3.90;2.63;;;;;;;;;;4893952;28;20485;-69
2023/08/19 12:40:27;;;;;;;4.13;2.33;;;;;;;;;;4890808;28;21013;-68
2023/08/19 12:42:53;;;;;;;6.30;2.23;;;;;;;;;;4894780;28;20549;-69
2023/08/19 12:45:20;;;;;;;3.07;2.73;;;;;;;;;;4893506;28;20457;-70
2023/08/19 12:47:46;;;;;;;5.23;2.77;;;;;;;;;;4894517;29;20938;-70
2023/08/19 12:50:12;;;;;;;4.73;3.13;;;;;;;;;;4894489;28;20461;-73
2023/08/19 12:52:38;;;;;;;3.23;2.93;;;;;;;;;;4894673;28;20428;-69
2023/08/19 12:55:05;;;;;;;2.67;2.40;;;;;;;;;;4893760;28;20448;-71
2023/08/19 12:57:31;;;;;;;5.37;2.73;;;;;;;;;;4894403;28;20532;-68
2023/08/19 12:59:57;;;;;;;2.80;2.30;;;;;;;;;;4894454;28;20449;-71
2023/08/19 13:02:23;;;;;;;3.27;2.70;;;;;;;;;;4894226;28;20813;-70
2023/08/19 13:04:49;;;;;;;3.40;3.10;;;;;;;;;;4894373;28;20236;-70
2023/08/19 13:07:15;;;;;;;6.70;2.43;;;;;;;;;;4894360;28;20933;-70
2023/08/19 13:09:41;;;;;;;5.23;3.23;;;;;;;;;;4893811;29;20472;-70
2023/08/19 13:12:07;;;;;;;5.63;2.43;;;;;;;;;;4893944;28;20221;-69
2023/08/19 13:14:34;;;;;;;5.53;3.00;;;;;;;;;;4894185;28;20421;-70
2023/08/19 13:17:00;;;;;;;11.97;3.37;;;;;;;;;;4894357;28;20429;-69
2023/08/19 13:19:26;;;;;;;5.73;3.17;;;;;;;;;;4894056;28;20495;-71
2023/08/19 13:21:53;;;;;;;6.47;2.40;;;;;;;;;;4893195;28;20521;-70
2023/08/19 13:24:19;;;;;;;11.40;3.30;;;;;;;;;;4893898;28;20466;-70
2023/08/19 13:26:45;;;;;;;3.87;2.90;;;;;;;;;;4894411;29;20465;-70
2023/08/19 13:29:11;;;;;;;5.60;2.63;;;;;;;;;;4894040;28;20452;-70
2023/08/19 13:31:37;;;;;;;5.07;3.30;;;;;;;;;;4893526;28;20433;-69
2023/08/19 13:34:03;;;;;;;3.30;3.10;;;;;;;;;;4894173;28;20422;-70
2023/08/19 13:36:29;;;;;;;8.23;2.50;;;;;;;;;;4893019;28;20445;-69
2023/08/19 13:38:57;;;;;;;6.33;3.03;;;;;;;;;;4892402;28;20555;-68
2023/08/19 13:41:22;;;;;;;7.50;3.20;;;;;;;;;;4893566;28;20197;-69
2023/08/19 13:43:48;;;;;;;2.83;2.67;;;;;;;;;;4893914;28;20441;-69
2023/08/19 13:46:14;;;;;;;3.47;3.03;;;;;;;;;;4892060;28;20797;-71
2023/08/19 13:48:40;;;;;;;3.13;2.93;;;;;;;;;;4892479;28;20841;-72
2023/08/19 13:51:06;;;;;;;6.33;3.30;;;;;;;;;;4893546;28;20426;-71
2023/08/19 13:53:33;;;;;;;3.47;3.27;;;;;;;;;;4893373;28;20943;-68
2023/08/19 13:55:59;;;;;;;3.87;3.50;;;;;;;;;;4891455;28;20457;-71
2023/08/19 13:58:24;;;;;;;6.00;3.23;;;;;;;;;;4891710;28;20958;-71
2023/08/19 14:00:50;;;;;;;2.50;2.40;;;;;;;;;;4893065;29;20913;-71
2023/08/19 14:03:18;;;;;;;3.60;3.30;;;;;;;;;;4893346;28;20430;-73
2023/08/19 14:05:44;;;;;;;15.23;3.30;;;;;;;;;;4893117;28;20504;-70
2023/08/19 14:08:10;;;;;;;5.27;3.13;;;;;;;;;;4891973;28;20437;-71
2023/08/19 14:10:37;;;;;;;5.67;3.30;;;;;;;;;;4893254;28;20456;-69
2023/08/19 14:13:04;;;;;;;8.27;2.80;;;;;;;;;;4893504;28;20456;-70
2023/08/19 14:15:30;;;;;;;3.23;3.13;;;;;;;;;;4893324;29;20442;-69
2023/08/19 14:17:56;;;;;;;5.53;3.53;;;;;;;;;;4891191;28;20493;-68
2023/08/19 14:20:22;;;;;;;4.23;3.10;;;;;;;;;;4893022;29;20531;-69
2023/08/19 14:22:48;;;;;;;3.23;2.50;;;;;;;;;;4893351;28;20480;-69
2023/08/19 14:25:14;;;;;;;2.70;2.60;;;;;;;;;;4893160;29;20425;-71
2023/08/19 14:27:40;;;;;;;3.50;3.20;;;;;;;;;;4891643;28;20938;-71
2023/08/19 14:30:06;;;;;;;3.70;3.50;;;;;;;;;;4892846;28;20524;-69
2023/08/19 14:32:32;;;;;;;8.30;2.90;;;;;;;;;;4892766;28;20472;-73
2023/08/19 14:34:58;;;;;;;5.33;2.63;;;;;;;;;;4892719;28;20962;-69
2023/08/19 14:37:24;;;;;;;3.40;3.30;;;;;;;;;;4892733;28;20426;-70
2023/08/19 14:39:50;;;;;;;5.40;2.93;;;;;;;;;;4892545;28;20495;-69